createdAt,value
2024-05-09T00:01:54.824Z,15.50
2024-05-09T00:04:27.820Z,13.10
2024-05-09T00:06:58.180Z,13.93
2024-05-09T00:09:28.568Z,12.67
2024-05-09T00:11:59.048Z,13.10
2024-05-09T00:14:29.499Z,13.17
2024-05-09T00:16:59.943Z,13.77
2024-05-09T00:19:33.861Z,14.80
2024-05-09T00:22:04.387Z,12.00
2024-05-09T00:24:35.728Z,13.97
2024-05-09T00:27:06.095Z,15.50
2024-05-09T00:29:36.875Z,13.70
2024-05-09T00:32:07.502Z,14.70
2024-05-09T00:34:40.586Z,15.10
2024-05-09T00:37:10.949Z,13.60
2024-05-09T00:39:41.287Z,13.67
2024-05-09T00:42:11.575Z,14.30
2024-05-09T00:44:41.988Z,14.00
2024-05-09T00:47:12.621Z,16.20
2024-05-09T00:49:46.909Z,15.60
2024-05-09T00:52:17.342Z,15.70
2024-05-09T00:54:47.694Z,18.60
2024-05-09T00:57:18.097Z,16.27
2024-05-09T00:59:48.527Z,16.27
2024-05-09T01:02:19.363Z,17.30
2024-05-09T01:04:53.636Z,16.93
2024-05-09T01:07:24.157Z,16.17
2024-05-09T01:09:54.467Z,15.73
2024-05-09T01:12:24.939Z,18.37
2024-05-09T01:14:55.359Z,18.80
2024-05-09T01:17:25.930Z,16.37
2024-05-09T01:19:58.932Z,18.73
2024-05-09T01:22:29.723Z,19.47
2024-05-09T01:25:03.705Z,17.70
2024-05-09T01:27:34.463Z,16.90
2024-05-09T01:30:09.142Z,17.93
2024-05-09T01:32:40.087Z,17.97
2024-05-09T01:35:10.802Z,17.03
2024-05-09T01:37:41.126Z,15.80
2024-05-09T01:40:18.620Z,18.53
2024-05-09T01:42:55.217Z,18.13
2024-05-09T01:45:26.554Z,18.33
2024-05-09T01:47:57.096Z,17.10
2024-05-09T01:53:00.960Z,17.47
2024-05-09T01:55:35.025Z,19.20
2024-05-09T01:58:05.420Z,17.97
2024-05-09T02:00:40.139Z,18.50
2024-05-09T02:03:15.903Z,15.43
2024-05-09T02:05:48.484Z,17.70
2024-05-09T02:08:19.798Z,18.20
2024-05-09T02:10:53.143Z,18.23
2024-05-09T02:13:23.608Z,17.50
2024-05-09T02:15:53.921Z,16.80
2024-05-09T02:18:24.329Z,18.77
2024-05-09T02:20:54.728Z,16.90
2024-05-09T02:23:25.232Z,16.50
2024-05-09T02:25:58.190Z,17.43
2024-05-09T02:28:28.522Z,17.50
2024-05-09T02:30:58.868Z,15.20
2024-05-09T02:33:29.306Z,15.17
2024-05-09T02:35:59.689Z,17.20
2024-05-09T02:38:27.461Z,16.30
2024-05-09T02:41:00.544Z,17.07
2024-05-09T02:43:28.327Z,14.77
2024-05-09T02:45:58.638Z,16.90
2024-05-09T02:48:26.411Z,15.33
2024-05-09T02:50:57.038Z,15.73
2024-05-09T02:53:24.935Z,17.13
2024-05-09T02:55:55.417Z,18.00
2024-05-09T02:58:25.866Z,16.27
2024-05-09T03:00:56.304Z,16.50
2024-05-09T03:03:24.497Z,15.77
2024-05-09T03:05:55.074Z,15.63
2024-05-09T03:08:22.786Z,13.40
2024-05-09T03:10:53.588Z,15.67
2024-05-09T03:13:21.443Z,15.07
2024-05-09T03:15:54.392Z,16.10
2024-05-09T03:18:22.246Z,16.40
2024-05-09T03:20:53.854Z,14.87
2024-05-09T03:23:21.746Z,14.13
2024-05-09T03:25:54.225Z,14.20
2024-05-09T03:28:22.016Z,15.67
2024-05-09T03:30:54.998Z,13.63
2024-05-09T03:33:23.235Z,15.97
2024-05-09T03:35:53.729Z,13.73
2024-05-09T03:38:24.046Z,16.13
2024-05-09T03:40:54.471Z,16.97
2024-05-09T03:43:22.216Z,14.40
2024-05-09T03:45:55.804Z,14.03
2024-05-09T03:48:23.700Z,15.10
2024-05-09T03:50:54.418Z,14.43
2024-05-09T03:53:25.016Z,13.97
2024-05-09T03:55:57.511Z,14.07
2024-05-09T03:58:25.239Z,14.10
2024-05-09T04:00:58.246Z,14.13
2024-05-09T04:03:26.087Z,13.30
2024-05-09T04:05:56.646Z,14.70
2024-05-09T04:08:24.402Z,14.07
2024-05-09T04:10:54.914Z,15.00
2024-05-09T04:13:22.635Z,14.30
2024-05-09T04:15:52.967Z,15.50
2024-05-09T04:18:23.448Z,15.27
2024-05-09T04:20:53.963Z,15.13
2024-05-09T04:23:21.728Z,14.47
2024-05-09T04:25:52.040Z,15.33
2024-05-09T04:28:20.868Z,14.40
2024-05-09T04:30:51.170Z,16.13
2024-05-09T04:33:21.964Z,15.90
2024-05-09T04:35:54.595Z,14.50
2024-05-09T04:38:25.037Z,17.40
2024-05-09T04:40:52.864Z,17.80
2024-05-09T04:43:23.627Z,17.47
2024-05-09T04:45:51.334Z,17.50
2024-05-09T04:48:21.918Z,18.10
2024-05-09T04:50:49.929Z,16.97
2024-05-09T04:53:23.012Z,17.77
2024-05-09T04:55:51.226Z,17.67
2024-05-09T04:58:21.649Z,19.30
2024-05-09T05:00:49.388Z,18.90
2024-05-09T05:03:20.020Z,16.37
2024-05-09T05:05:47.900Z,16.90
2024-05-09T05:08:19.493Z,19.37
2024-05-09T05:10:50.346Z,19.60
2024-05-09T05:13:24.655Z,19.50
2024-05-09T05:15:56.924Z,20.30
2024-05-09T05:18:28.875Z,22.07
2024-05-09T05:20:57.567Z,22.10
2024-05-09T05:23:28.332Z,20.77
2024-05-09T05:26:00.866Z,20.73
2024-05-09T05:28:31.330Z,19.47
2024-05-09T05:30:59.053Z,22.67
2024-05-09T05:33:29.586Z,23.90
2024-05-09T05:35:58.470Z,23.43
2024-05-09T05:38:28.931Z,26.00
2024-05-09T05:40:56.963Z,23.13
2024-05-09T05:43:30.087Z,23.80
2024-05-09T05:45:57.839Z,24.73
2024-05-09T05:48:28.363Z,25.47
2024-05-09T05:50:56.284Z,26.70
2024-05-09T05:53:27.784Z,26.30
2024-05-09T05:55:55.635Z,28.67
2024-05-09T05:58:26.130Z,32.47
2024-05-09T06:00:56.613Z,29.17
2024-05-09T06:03:28.613Z,21.83
2024-05-09T06:05:56.784Z,17.30
2024-05-09T06:08:30.139Z,14.43
2024-05-09T06:10:58.303Z,12.90
2024-05-09T06:13:29.865Z,19.60
2024-05-09T06:16:00.798Z,14.40
2024-05-09T06:18:31.430Z,30.90
2024-05-09T06:20:59.235Z,21.63
2024-05-09T06:23:29.690Z,15.63
2024-05-09T06:25:57.572Z,15.00
2024-05-09T06:28:33.447Z,20.43
2024-05-09T06:31:05.174Z,21.20
2024-05-09T06:33:35.914Z,20.93
2024-05-09T06:36:03.872Z,32.57
2024-05-09T06:38:34.378Z,16.80
2024-05-09T06:41:02.345Z,32.90
2024-05-09T06:43:32.829Z,41.97
2024-05-09T06:46:04.324Z,29.17
2024-05-09T06:48:34.746Z,21.63
2024-05-09T06:51:02.639Z,19.23
2024-05-09T06:53:33.293Z,39.00
2024-05-09T06:56:01.264Z,25.60
2024-05-09T06:58:31.689Z,19.33
2024-05-09T07:00:59.557Z,24.30
2024-05-09T07:03:32.834Z,22.33
2024-05-09T07:06:00.720Z,19.47
2024-05-09T07:08:31.167Z,23.57
2024-05-09T07:10:59.015Z,21.20
2024-05-09T07:13:29.693Z,26.00
2024-05-09T07:15:57.422Z,24.53
2024-05-09T07:18:28.053Z,22.47
2024-05-09T07:20:58.822Z,25.70
2024-05-09T07:23:29.321Z,29.90
2024-05-09T07:25:58.602Z,22.00
2024-05-09T07:28:28.997Z,29.93
2024-05-09T07:30:56.776Z,38.33
2024-05-09T07:33:27.325Z,23.80
2024-05-09T07:36:01.135Z,22.20
2024-05-09T07:38:31.499Z,23.83
2024-05-09T07:41:01.595Z,21.77
2024-05-09T07:43:32.014Z,29.50
2024-05-09T07:46:37.819Z,23.43
2024-05-09T07:54:07.474Z,23.80
2024-05-09T07:56:36.856Z,27.03
2024-05-09T07:59:07.345Z,23.50
2024-05-09T08:01:35.246Z,25.60
2024-05-09T08:04:05.858Z,21.87
2024-05-09T08:06:36.401Z,21.63
2024-05-09T08:09:10.965Z,31.40
2024-05-09T08:11:41.857Z,24.13
2024-05-09T08:14:15.489Z,23.87
2024-05-09T08:16:43.193Z,28.50
2024-05-09T08:19:13.681Z,26.97
2024-05-09T08:21:46.678Z,19.87
2024-05-09T08:24:14.495Z,23.97
2024-05-09T08:26:44.928Z,22.07
2024-05-09T08:29:13.784Z,22.60
2024-05-09T08:31:44.397Z,19.73
2024-05-09T08:34:13.494Z,27.80
2024-05-09T08:36:46.656Z,24.47
2024-05-09T08:39:14.431Z,25.17
2024-05-09T08:41:47.741Z,26.20
2024-05-09T08:44:19.157Z,21.70
2024-05-09T08:46:50.691Z,25.87
2024-05-09T08:49:18.703Z,18.70
2024-05-09T08:51:53.842Z,18.63
2024-05-09T08:54:22.691Z,24.43
2024-05-09T08:56:54.137Z,20.83
2024-05-09T08:59:25.009Z,18.70
2024-05-09T09:01:55.692Z,19.47
2024-05-09T09:04:24.784Z,19.60
2024-05-09T09:07:00.288Z,21.97
2024-05-09T09:09:29.032Z,17.40
2024-05-09T09:11:59.443Z,19.07
2024-05-09T09:14:29.311Z,17.37
2024-05-09T09:16:59.628Z,18.60
2024-05-09T09:19:27.492Z,17.53
2024-05-09T09:22:00.717Z,16.87
2024-05-09T09:24:28.543Z,14.63
2024-05-09T09:27:01.225Z,13.73
2024-05-09T09:29:29.499Z,16.47
2024-05-09T09:32:03.901Z,15.80
2024-05-09T09:34:34.009Z,14.43
2024-05-09T09:37:10.399Z,15.70
2024-05-09T09:39:38.718Z,14.73
2024-05-09T09:42:09.761Z,13.80
2024-05-09T09:44:42.125Z,15.17
2024-05-09T09:47:13.307Z,13.17
2024-05-09T09:49:52.089Z,13.20
2024-05-09T09:52:25.412Z,14.10
2024-05-09T09:54:53.530Z,12.87
2024-05-09T09:57:24.151Z,13.80
2024-05-09T09:59:52.331Z,15.47
2024-05-09T10:02:46.857Z,13.27
2024-05-09T10:05:17.986Z,11.50
2024-05-09T10:07:48.509Z,13.10
2024-05-09T10:10:31.864Z,9.63
2024-05-09T10:13:01.347Z,13.00
2024-05-09T10:15:33.080Z,12.27
2024-05-09T10:18:06.397Z,12.33
2024-05-09T10:20:43.974Z,12.93
2024-05-09T10:23:30.091Z,10.90
2024-05-09T10:26:01.558Z,10.60
2024-05-09T10:28:29.701Z,10.50
2024-05-09T10:31:04.347Z,8.63
2024-05-09T10:33:50.993Z,9.63
2024-05-09T10:36:23.475Z,9.20
2024-05-09T10:38:55.209Z,11.17
2024-05-09T10:41:26.698Z,11.77
2024-05-09T10:43:54.397Z,10.60
2024-05-09T10:46:24.787Z,10.27
2024-05-09T10:48:53.327Z,10.60
2024-05-09T10:51:23.900Z,11.07
2024-05-09T10:53:56.891Z,10.77
2024-05-09T10:56:27.237Z,8.70
2024-05-09T10:58:55.071Z,8.80
2024-05-09T11:01:25.590Z,7.70
2024-05-09T11:03:53.632Z,12.57
2024-05-09T11:06:24.211Z,11.53
2024-05-09T11:08:54.755Z,14.90
2024-05-09T11:11:25.212Z,27.37
2024-05-09T11:13:53.102Z,9.07
2024-05-09T11:16:24.525Z,7.03
2024-05-09T11:18:55.974Z,12.13
2024-05-09T11:21:27.024Z,13.57
2024-05-09T11:23:58.199Z,12.43
2024-05-09T11:26:29.463Z,10.73
2024-05-09T11:28:57.263Z,13.40
2024-05-09T11:31:27.904Z,11.27
2024-05-09T11:33:55.865Z,11.27
2024-05-09T11:36:26.259Z,7.80
2024-05-09T11:38:57.686Z,8.27
2024-05-09T11:41:30.529Z,10.90
2024-05-09T11:43:58.277Z,10.40
2024-05-09T11:46:28.685Z,11.93
2024-05-09T11:48:56.649Z,8.37
2024-05-09T11:51:29.286Z,11.47
2024-05-09T11:53:59.741Z,10.70
2024-05-09T11:56:30.093Z,7.67
2024-05-09T11:58:57.815Z,5.00
2024-05-09T12:01:28.381Z,8.30
2024-05-09T12:03:56.471Z,8.37
2024-05-09T12:06:26.978Z,7.73
2024-05-09T12:08:54.811Z,10.23
2024-05-09T12:11:27.778Z,8.20
2024-05-09T12:13:55.547Z,11.03
2024-05-09T12:16:26.114Z,9.73
2024-05-09T12:18:54.142Z,8.53
2024-05-09T12:21:24.630Z,6.53
2024-05-09T12:23:52.363Z,9.93
2024-05-09T12:26:22.777Z,10.07
2024-05-09T12:28:53.327Z,8.67
2024-05-09T12:31:24.871Z,8.50
2024-05-09T12:33:54.455Z,7.70
2024-05-09T12:36:24.923Z,8.40
2024-05-09T12:38:52.665Z,7.30
2024-05-09T12:41:23.047Z,7.70
2024-05-09T12:43:53.366Z,7.20
2024-05-09T12:46:24.155Z,8.90
2024-05-09T12:48:53.724Z,10.37
2024-05-09T12:51:25.457Z,9.80
2024-05-09T12:53:53.212Z,5.30
2024-05-09T12:56:23.612Z,9.17
2024-05-09T12:58:59.958Z,9.47
2024-05-09T13:01:30.425Z,6.60
2024-05-09T13:03:58.423Z,6.47
2024-05-09T13:06:29.130Z,5.73
2024-05-09T13:08:56.880Z,5.80
2024-05-09T13:11:27.475Z,6.27
2024-05-09T13:13:55.277Z,5.50
2024-05-09T13:16:28.410Z,7.70
2024-05-09T13:18:56.228Z,5.57
2024-05-09T13:21:26.686Z,5.60
2024-05-09T13:23:56.200Z,5.30
2024-05-09T13:26:27.255Z,3.17
2024-05-09T13:28:56.123Z,6.33
2024-05-09T13:31:29.219Z,4.60
2024-05-09T13:33:59.765Z,4.40
2024-05-09T13:36:27.561Z,4.47
2024-05-09T13:38:59.301Z,5.13
2024-05-09T13:41:27.024Z,5.10
2024-05-09T13:43:57.335Z,6.43
2024-05-09T13:46:27.835Z,6.40
2024-05-09T13:48:58.422Z,5.97
2024-05-09T13:51:26.649Z,4.90
2024-05-09T13:53:59.262Z,4.90
2024-05-09T13:56:27.764Z,5.70
2024-05-09T13:58:58.272Z,6.10
2024-05-09T14:01:28.740Z,6.23
2024-05-09T14:04:00.460Z,6.70
2024-05-09T14:06:28.376Z,5.27
2024-05-09T14:08:58.772Z,6.60
2024-05-09T14:11:27.645Z,5.23
2024-05-09T14:13:58.264Z,6.73
2024-05-09T14:16:30.720Z,7.57
2024-05-09T14:19:01.838Z,6.13
2024-05-09T14:21:29.679Z,5.00
2024-05-09T14:24:01.147Z,7.40
2024-05-09T14:26:28.960Z,4.77
2024-05-09T14:29:06.657Z,7.40
2024-05-09T14:31:39.295Z,5.17
2024-05-09T14:34:10.464Z,6.30
2024-05-09T14:36:38.457Z,5.27
2024-05-09T14:39:18.945Z,10.33
2024-05-09T14:41:46.719Z,10.00
2024-05-09T14:44:17.195Z,5.83
2024-05-09T14:46:47.703Z,6.53
2024-05-09T14:49:18.482Z,7.00
2024-05-09T14:51:48.127Z,6.10
2024-05-09T14:54:18.881Z,5.03
2024-05-09T14:56:49.011Z,7.63
2024-05-09T14:59:19.341Z,6.50
2024-05-09T15:01:49.909Z,9.40
2024-05-09T15:04:20.609Z,6.80
2024-05-09T15:06:49.941Z,7.30
2024-05-09T15:09:27.369Z,6.80
2024-05-09T15:12:03.836Z,8.23
2024-05-09T15:14:39.656Z,5.87
2024-05-09T15:17:16.516Z,7.10
2024-05-09T15:19:48.428Z,6.90
2024-05-09T15:22:24.452Z,8.37
2024-05-09T15:24:57.063Z,6.23
2024-05-09T15:27:39.581Z,6.40
2024-05-09T15:30:13.223Z,6.23
2024-05-09T15:32:50.513Z,9.43
2024-05-09T15:35:20.976Z,8.50
2024-05-09T15:37:49.848Z,7.87
2024-05-09T15:40:30.472Z,7.23
2024-05-09T15:43:09.335Z,7.00
2024-05-09T15:45:41.655Z,8.30
2024-05-09T15:48:12.481Z,8.27
2024-05-09T15:50:43.688Z,7.70
2024-05-09T15:53:16.399Z,7.30
2024-05-09T15:55:47.812Z,6.90
2024-05-09T15:58:15.879Z,8.43
2024-05-09T16:00:52.486Z,7.63
2024-05-09T16:03:23.182Z,8.47
2024-05-09T16:05:55.633Z,11.50
2024-05-09T16:08:24.601Z,8.57
2024-05-09T16:10:55.357Z,9.37
2024-05-09T16:13:27.550Z,8.20
2024-05-09T16:15:59.835Z,8.90
2024-05-09T16:18:30.795Z,9.57
2024-05-09T16:21:06.511Z,10.30
2024-05-09T16:23:34.646Z,8.30
2024-05-09T16:26:05.316Z,8.73
2024-05-09T16:28:37.250Z,7.97
2024-05-09T16:31:07.868Z,9.77
2024-05-09T16:33:42.548Z,8.60
2024-05-09T16:36:44.108Z,10.73
2024-05-09T16:39:12.351Z,7.90
2024-05-09T16:41:42.712Z,10.37
2024-05-09T16:44:37.475Z,7.97
2024-05-09T16:47:08.326Z,8.10
2024-05-09T16:49:38.711Z,8.27
2024-05-09T16:52:09.959Z,8.57
2024-05-09T16:54:37.954Z,8.00
2024-05-09T16:57:08.790Z,6.90
2024-05-09T16:59:36.542Z,8.27
2024-05-09T17:02:09.617Z,8.47
2024-05-09T17:04:40.343Z,9.50
2024-05-09T17:07:11.103Z,10.00
2024-05-09T17:09:39.664Z,8.67
2024-05-09T17:12:10.081Z,8.40
2024-05-09T17:14:40.373Z,8.00
2024-05-09T17:17:09.978Z,8.20
2024-05-09T17:19:44.911Z,8.87
2024-05-09T17:22:12.680Z,7.43
2024-05-09T17:24:43.921Z,7.90
2024-05-09T17:27:15.294Z,8.60
2024-05-09T17:29:46.041Z,7.40
2024-05-09T17:32:14.160Z,8.37
2024-05-09T17:34:47.406Z,7.60
2024-05-09T17:37:17.098Z,7.07
2024-05-09T17:39:47.612Z,7.47
2024-05-09T17:42:15.666Z,8.07
2024-05-09T17:44:47.120Z,6.70
2024-05-09T17:47:14.899Z,7.10
2024-05-09T17:49:48.311Z,7.77
2024-05-09T17:52:17.372Z,7.57
2024-05-09T17:54:48.369Z,8.50
2024-05-09T17:57:17.193Z,7.80
2024-05-09T17:59:47.526Z,6.90
2024-05-09T18:02:15.335Z,7.57
2024-05-09T18:04:48.564Z,7.40
2024-05-09T18:07:16.521Z,7.63
2024-05-09T18:09:49.123Z,7.63
2024-05-09T18:12:16.869Z,9.50
2024-05-09T18:14:47.268Z,9.00
2024-05-09T18:17:16.342Z,9.50
2024-05-09T18:19:50.413Z,8.67
2024-05-09T18:22:19.442Z,11.40
2024-05-09T18:24:50.432Z,8.87
2024-05-09T18:27:18.302Z,10.00
2024-05-09T18:29:48.724Z,9.60
2024-05-09T18:32:16.477Z,10.57
2024-05-09T18:34:46.987Z,8.87
2024-05-09T18:37:17.578Z,9.47
2024-05-09T18:39:47.995Z,11.30
2024-05-09T18:42:16.840Z,10.27
2024-05-09T18:44:47.156Z,10.10
2024-05-09T18:47:16.808Z,11.13
2024-05-09T18:49:48.855Z,8.47
2024-05-09T18:52:19.505Z,15.37
2024-05-09T18:54:49.968Z,9.60
2024-05-09T18:57:18.845Z,9.70
2024-05-09T18:59:49.203Z,10.50
2024-05-09T19:02:17.072Z,10.07
2024-05-09T19:04:48.283Z,9.00
2024-05-09T19:07:18.785Z,10.97
2024-05-09T19:09:52.226Z,9.30
2024-05-09T19:12:20.015Z,9.17
2024-05-09T19:14:50.571Z,16.07
2024-05-09T19:17:18.393Z,8.80
2024-05-09T19:19:49.295Z,9.20
2024-05-09T19:22:33.426Z,9.97
2024-05-09T19:25:14.715Z,12.00
2024-05-09T19:27:49.582Z,17.57
2024-05-09T19:30:29.780Z,16.90
2024-05-09T19:33:05.691Z,17.67
2024-05-09T19:35:36.281Z,17.70
2024-05-09T19:38:04.294Z,17.77
2024-05-09T19:40:37.883Z,11.00
2024-05-09T19:43:06.919Z,16.90
2024-05-09T19:45:37.515Z,16.80
2024-05-09T19:48:06.447Z,17.80
2024-05-09T19:50:42.565Z,17.50
2024-05-09T19:53:12.498Z,17.53
2024-05-09T19:55:45.807Z,17.97
2024-05-09T19:58:13.884Z,16.50
2024-05-09T20:00:44.981Z,19.27
2024-05-09T20:03:14.085Z,18.07
2024-05-09T20:05:46.711Z,17.27
2024-05-09T20:08:15.249Z,17.27
2024-05-09T20:10:48.410Z,15.87
2024-05-09T20:13:16.665Z,19.50
2024-05-09T20:15:47.177Z,18.70
2024-05-09T20:18:15.113Z,13.00
2024-05-09T20:20:46.118Z,18.83
2024-05-09T20:23:15.073Z,18.03
2024-05-09T20:25:49.116Z,17.07
2024-05-09T20:28:17.009Z,17.33
2024-05-09T20:30:47.528Z,17.70
2024-05-09T20:33:15.313Z,14.20
2024-05-09T20:35:45.689Z,14.67
2024-05-09T20:38:13.962Z,18.83
2024-05-09T20:40:44.492Z,18.20
2024-05-09T20:43:14.951Z,19.00
2024-05-09T20:45:46.445Z,19.20
2024-05-09T20:48:14.420Z,18.57
2024-05-09T20:50:44.958Z,17.37
2024-05-09T20:53:14.714Z,18.47
2024-05-09T20:55:47.172Z,17.80
2024-05-09T20:58:17.604Z,19.47
2024-05-09T21:00:48.209Z,19.10
2024-05-09T21:03:17.185Z,19.60
2024-05-09T21:05:48.655Z,18.27
2024-05-09T21:08:16.750Z,18.27
2024-05-09T21:10:47.406Z,18.53
2024-05-09T21:13:18.054Z,18.87
2024-05-09T21:15:48.595Z,18.43
2024-05-09T21:18:16.407Z,19.93
2024-05-09T21:20:47.961Z,19.30
2024-05-09T21:23:15.802Z,21.80
2024-05-09T21:25:46.445Z,20.67
2024-05-09T21:28:15.122Z,21.10
2024-05-09T21:30:48.268Z,20.10
2024-05-09T21:33:16.450Z,19.97
2024-05-09T21:35:47.150Z,19.13
2024-05-09T21:38:15.095Z,19.30
2024-05-09T21:40:48.756Z,20.20
2024-05-09T21:43:16.504Z,20.43
2024-05-09T21:45:49.583Z,20.60
2024-05-09T21:48:17.340Z,20.60
2024-05-09T21:50:47.750Z,21.10
2024-05-09T21:53:15.453Z,21.20
2024-05-09T21:55:46.206Z,20.53
2024-05-09T21:58:14.449Z,19.30
2024-05-09T22:00:46.380Z,20.93
2024-05-09T22:03:17.319Z,20.07
2024-05-09T22:05:47.795Z,22.23
2024-05-09T22:08:15.680Z,20.43
2024-05-09T22:10:46.167Z,21.13
2024-05-09T22:13:15.638Z,22.40
2024-05-09T22:15:46.335Z,24.10
2024-05-09T22:18:16.877Z,22.67
2024-05-09T22:20:47.352Z,23.20
2024-05-09T22:23:15.668Z,22.53
2024-05-09T22:25:46.082Z,21.97
2024-05-09T22:28:14.780Z,20.57
2024-05-09T22:30:47.172Z,21.70
2024-05-09T22:33:18.248Z,21.83
2024-05-09T22:35:51.133Z,20.53
2024-05-09T22:38:18.856Z,19.83
2024-05-09T22:40:50.095Z,22.37
2024-05-09T22:43:23.207Z,20.43
2024-05-09T22:45:55.843Z,22.47
2024-05-09T22:48:26.684Z,19.97
2024-05-09T22:50:57.191Z,22.20
2024-05-09T22:53:25.776Z,22.80
2024-05-09T22:55:56.385Z,22.53
2024-05-09T22:58:24.477Z,21.67
2024-05-09T23:00:55.049Z,20.70
2024-05-09T23:03:23.250Z,22.97
2024-05-09T23:05:56.378Z,20.70
2024-05-09T23:08:24.072Z,23.00
2024-05-09T23:10:54.661Z,22.07
2024-05-09T23:13:22.672Z,21.80
2024-05-09T23:15:53.403Z,22.53
2024-05-09T23:18:21.248Z,22.23
2024-05-09T23:20:51.909Z,21.73
2024-05-09T23:23:22.518Z,23.20
2024-05-09T23:25:53.025Z,22.60
2024-05-09T23:28:20.814Z,22.27
2024-05-09T23:30:51.247Z,21.97
2024-05-09T23:33:19.088Z,21.20
2024-05-09T23:35:49.501Z,22.00
2024-05-09T23:38:18.406Z,20.07
2024-05-09T23:40:52.656Z,19.70
2024-05-09T23:43:20.744Z,16.47
2024-05-09T23:45:51.244Z,19.07
2024-05-09T23:48:19.109Z,17.90
2024-05-09T23:50:49.708Z,16.00
2024-05-09T23:53:17.440Z,16.50
2024-05-09T23:55:47.810Z,17.67
2024-05-09T23:58:18.280Z,19.13
